• Join FlightAware (Why Join?)
  • Login
  • US Flag 
08:41PM EST


 

Airport Tracker/Info


-or-


 

Live Flight TrackerFlight Track Log ✈ QXE158 ✈ 21-Apr-2012 ✈ KSEA - KEAT

Flight Track Log - Related Links

Times and Time Zones

All times are in EDT time to prevent confusion due to time zone crossing. See the QXE158 flight status page for this flight to view local times or setup timezone preferences in your user account.

Time Position Orientation Groundspeed Altitude Reporting Facility
EDT Latitude Longitude Course Direction KTS MPH feet Rate Location/Type
12:53PM 47.4569 -122.3083 26° Northeast 120 138 1,400  Level Seattle Center
12:55PM 47.5133 -122.2672 82° East 203 234 4,300 2,311 Climbing Seattle Center
12:56PM 47.5217 -122.1775 107° East 226 260 7,100 2,538 Climbing Seattle Center
12:57PM 47.5019 -122.0811 107° East 248 285 9,800 2,705 Climbing Seattle Center
12:58PM 47.4817 -121.9825 106° East 253 291 12,600 2,293 Climbing Seattle Center
12:59PM 47.4556 -121.8492 107° East 292 336 14,500 1,171 Climbing Seattle Center
01:00PM 47.4289 -121.7183 91° East 335 386 15,000 246 Climbing Seattle Center
01:01PM 47.4272 -121.5792 91° East 350 403 15,000  Level Seattle Center
01:02PM 47.4261 -121.4381 92° East 348 400 15,000  Level Seattle Center
01:03PM 47.4233 -121.2978 92° East 347 399 15,000  Level Seattle Center
01:04PM 47.4203 -121.1561 91° East 348 400 15,000 -49 Level Seattle Center
01:05PM 47.4183 -121.0144 92° East 350 403 14,900 -590 Descending Seattle Center
01:06PM 47.4142 -120.8369 92° East 364 419 13,800 -1,082 Descending Seattle Center
01:07PM 47.4108 -120.7086 92° East 375 432 12,700 -1,475 Descending Seattle Center
01:08PM 47.4075 -120.5494 90° East 321 369 10,800 -2,016 Descending Seattle Center
01:09PM 47.4078 -120.4297 51° Northeast 291 335 8,600 -2,098 Descending Seattle Center
01:10PM 47.4503 -120.3525 133° Southeast 267 307 6,500 -2,000 Descending Seattle Center
01:11PM 47.4083 -120.2861 141° Southeast 215 247 4,500 -1,672 Descending Seattle Center
01:12PM 47.3772 -120.2494 131° Southeast 179 206 3,100 -787 Descending Seattle Center
01:13PM 47.3431 -120.1917 131° Southeast 172 198 2,900 -197 Descending Seattle Center